createdAt,value
2019-02-24T00:01:01.422Z,15.13
2019-02-24T00:03:31.325Z,14.53
2019-02-24T00:06:01.185Z,22.30
2019-02-24T00:08:31.092Z,15.33
2019-02-24T00:11:00.931Z,16.17
2019-02-24T00:13:30.750Z,13.53
2019-02-24T00:16:00.582Z,17.10
2019-02-24T00:18:30.489Z,14.97
2019-02-24T00:21:00.288Z,14.43
2019-02-24T00:23:30.215Z,15.47
2019-02-24T00:26:00.073Z,16.40
2019-02-24T00:28:29.932Z,17.27
2019-02-24T00:30:59.885Z,18.43
2019-02-24T00:33:29.722Z,15.37
2019-02-24T00:35:59.550Z,14.93
2019-02-24T00:38:30.346Z,17.63
2019-02-24T00:41:00.199Z,15.10
2019-02-24T00:43:30.095Z,17.10
2019-02-24T00:46:00.131Z,15.63
2019-02-24T00:48:29.944Z,15.13
2019-02-24T00:50:59.785Z,15.50
2019-02-24T00:53:29.690Z,14.77
2019-02-24T00:55:59.498Z,14.23
2019-02-24T00:58:29.298Z,15.43
2019-02-24T01:00:59.086Z,14.30
2019-02-24T01:03:28.882Z,16.47
2019-02-24T01:05:58.664Z,16.43
2019-02-24T01:08:28.553Z,15.07
2019-02-24T01:10:58.480Z,16.00
2019-02-24T01:13:28.301Z,13.73
2019-02-24T01:15:58.077Z,15.53
2019-02-24T01:18:27.969Z,14.63
2019-02-24T01:20:57.765Z,15.17
2019-02-24T01:23:27.645Z,14.37
2019-02-24T01:25:58.534Z,15.53
2019-02-24T01:28:28.418Z,14.67
2019-02-24T01:30:58.205Z,15.30
2019-02-24T01:33:28.036Z,14.07
2019-02-24T01:35:57.884Z,13.77
2019-02-24T01:38:27.725Z,13.23
2019-02-24T01:40:57.655Z,15.70
2019-02-24T01:43:28.448Z,17.03
2019-02-24T01:45:58.238Z,12.80
2019-02-24T01:48:28.054Z,14.83
2019-02-24T01:50:57.840Z,14.30
2019-02-24T01:53:27.734Z,13.43
2019-02-24T01:55:57.502Z,15.03
2019-02-24T01:58:34.920Z,17.57
2019-02-24T02:00:58.928Z,13.73
2019-02-24T02:03:28.788Z,15.63
2019-02-24T02:05:58.643Z,13.87
2019-02-24T02:08:28.423Z,14.30
2019-02-24T02:10:58.214Z,14.57
2019-02-24T02:13:28.859Z,13.00
2019-02-24T02:15:58.822Z,14.40
2019-02-24T02:18:28.613Z,15.67
2019-02-24T02:20:59.187Z,15.67
2019-02-24T02:23:29.973Z,13.33
2019-02-24T02:25:59.878Z,14.27
2019-02-24T02:28:29.673Z,14.43
2019-02-24T02:30:59.493Z,14.73
2019-02-24T02:33:29.319Z,15.97
2019-02-24T02:35:59.182Z,16.40
2019-02-24T02:38:28.981Z,14.43
2019-02-24T02:40:58.776Z,14.70
2019-02-24T02:43:32.670Z,14.10
2019-02-24T02:46:02.496Z,14.10
2019-02-24T02:48:32.454Z,17.63
2019-02-24T02:51:02.269Z,14.17
2019-02-24T02:53:32.141Z,14.23
2019-02-24T02:56:02.041Z,14.03
2019-02-24T02:58:31.819Z,15.80
2019-02-24T03:01:01.582Z,15.70
2019-02-24T03:03:32.438Z,13.87
2019-02-24T03:06:09.325Z,14.43
2019-02-24T03:08:46.164Z,13.47
2019-02-24T03:11:16.274Z,14.60
2019-02-24T03:13:46.088Z,13.00
2019-02-24T03:16:19.649Z,15.03
2019-02-24T03:18:49.493Z,16.20
2019-02-24T03:21:19.272Z,15.13
2019-02-24T03:23:49.095Z,16.70
2019-02-24T03:26:18.930Z,14.57
2019-02-24T03:28:48.756Z,13.87
2019-02-24T03:31:18.522Z,14.53
2019-02-24T03:33:48.355Z,13.43
2019-02-24T03:36:18.234Z,13.57
2019-02-24T03:38:48.080Z,14.17
2019-02-24T03:41:17.900Z,14.83
2019-02-24T03:43:47.673Z,14.97
2019-02-24T03:46:17.514Z,13.37
2019-02-24T03:48:47.310Z,13.00
2019-02-24T03:51:17.093Z,15.07
2019-02-24T03:53:46.888Z,14.90
2019-02-24T03:56:16.882Z,14.43
2019-02-24T03:58:46.757Z,17.00
2019-02-24T04:01:16.645Z,15.23
2019-02-24T04:03:46.534Z,15.33
2019-02-24T04:06:16.331Z,18.03
2019-02-24T04:08:46.133Z,16.43
2019-02-24T04:11:16.921Z,16.07
2019-02-24T04:13:46.709Z,16.53
2019-02-24T04:16:16.523Z,15.17
2019-02-24T04:18:46.309Z,16.50
2019-02-24T04:21:16.135Z,14.30
2019-02-24T04:23:45.963Z,14.15
2019-02-24T04:26:15.728Z,12.30
2019-02-24T04:28:45.498Z,11.87
2019-02-24T04:31:15.286Z,12.60
2019-02-24T04:33:45.135Z,12.40
2019-02-24T04:36:15.009Z,11.90
2019-02-24T04:38:44.866Z,11.53
2019-02-24T04:41:14.662Z,11.00
2019-02-24T04:43:44.475Z,12.10
2019-02-24T04:46:14.274Z,12.17
2019-02-24T04:48:44.125Z,12.93
2019-02-24T04:51:13.940Z,12.03
2019-02-24T04:53:43.776Z,12.55
2019-02-24T04:56:14.002Z,12.88
2019-02-24T04:58:43.986Z,12.73
2019-02-24T05:01:13.762Z,11.30
2019-02-24T05:03:43.741Z,10.50
2019-02-24T05:06:13.535Z,10.40
2019-02-24T05:08:46.420Z,12.37
2019-02-24T05:11:16.270Z,11.65
2019-02-24T05:13:46.105Z,10.90
2019-02-24T05:16:15.974Z,11.43
2019-02-24T05:18:45.746Z,10.72
2019-02-24T05:21:15.647Z,10.45
2019-02-24T05:23:45.434Z,11.30
2019-02-24T05:26:15.265Z,10.43
2019-02-24T05:28:45.057Z,10.45
2019-02-24T05:31:14.938Z,9.95
2019-02-24T05:33:44.791Z,10.23
2019-02-24T05:36:14.607Z,9.68
2019-02-24T05:38:44.381Z,9.47
2019-02-24T05:41:14.273Z,9.58
2019-02-24T05:43:44.061Z,9.93
2019-02-24T05:46:13.881Z,8.50
2019-02-24T05:48:43.740Z,10.10
2019-02-24T05:51:13.563Z,9.03
2019-02-24T05:53:43.388Z,9.18
2019-02-24T05:56:13.228Z,9.70
2019-02-24T05:58:43.097Z,9.80
2019-02-24T06:01:12.876Z,9.23
2019-02-24T06:03:42.686Z,11.37
2019-02-24T06:06:12.493Z,9.45
2019-02-24T06:08:42.362Z,9.15
2019-02-24T06:11:12.173Z,9.98
2019-02-24T06:13:41.926Z,8.98
2019-02-24T06:16:11.739Z,9.40
2019-02-24T06:18:41.635Z,10.28
2019-02-24T06:21:11.489Z,9.33
2019-02-24T06:23:41.380Z,9.20
2019-02-24T06:26:11.248Z,9.25
2019-02-24T06:28:41.111Z,8.70
2019-02-24T06:31:10.956Z,9.20
2019-02-24T06:33:40.927Z,9.15
2019-02-24T06:36:10.683Z,9.77
2019-02-24T06:38:40.573Z,9.28
2019-02-24T06:41:10.446Z,8.80
2019-02-24T06:43:40.311Z,9.75
2019-02-24T06:46:10.145Z,9.13
2019-02-24T06:48:39.928Z,8.80
2019-02-24T06:51:11.133Z,8.73
2019-02-24T06:53:41.001Z,8.35
2019-02-24T06:56:10.775Z,8.90
2019-02-24T06:58:40.692Z,10.13
2019-02-24T07:01:12.569Z,9.50
2019-02-24T07:03:42.433Z,8.78
2019-02-24T07:06:12.266Z,9.03
2019-02-24T07:08:42.059Z,8.75
2019-02-24T07:11:11.963Z,8.53
2019-02-24T07:13:41.882Z,9.10
2019-02-24T07:16:11.764Z,8.48
2019-02-24T07:18:41.734Z,8.48
2019-02-24T07:21:11.562Z,9.20
2019-02-24T07:23:41.380Z,8.45
2019-02-24T07:26:11.232Z,8.85
2019-02-24T07:28:41.134Z,8.80
2019-02-24T07:31:10.948Z,9.60
2019-02-24T07:33:40.740Z,8.48
2019-02-24T07:36:10.614Z,8.60
2019-02-24T07:38:40.452Z,8.98
2019-02-24T07:41:10.326Z,9.58
2019-02-24T07:43:40.153Z,10.08
2019-02-24T07:46:12.435Z,8.93
2019-02-24T07:48:42.279Z,7.80
2019-02-24T07:51:12.498Z,8.23
2019-02-24T07:53:42.517Z,8.78
2019-02-24T07:56:12.375Z,8.00
2019-02-24T07:58:42.282Z,8.23
2019-02-24T08:01:15.121Z,8.23
2019-02-24T08:03:44.878Z,9.03
2019-02-24T08:06:14.655Z,8.93
2019-02-24T08:08:44.453Z,8.33
2019-02-24T08:11:14.361Z,8.08
2019-02-24T08:13:44.257Z,8.80
2019-02-24T08:16:14.105Z,9.18
2019-02-24T08:18:49.545Z,8.25
2019-02-24T08:21:15.478Z,8.28
2019-02-24T08:23:47.765Z,8.27
2019-02-24T08:26:17.719Z,7.92
2019-02-24T08:28:47.617Z,7.83
2019-02-24T08:31:17.527Z,7.60
2019-02-24T08:33:48.449Z,8.00
2019-02-24T08:36:18.277Z,8.63
2019-02-24T08:38:48.073Z,8.18
2019-02-24T08:41:18.017Z,7.92
2019-02-24T08:43:47.911Z,8.30
2019-02-24T08:46:17.751Z,7.37
2019-02-24T08:48:47.612Z,7.58
2019-02-24T08:51:17.607Z,7.40
2019-02-24T08:53:47.495Z,7.40
2019-02-24T08:56:18.559Z,8.65
2019-02-24T08:58:48.555Z,8.13
2019-02-24T09:01:19.036Z,8.43
2019-02-24T09:03:48.902Z,7.92
2019-02-24T09:06:18.746Z,8.03
2019-02-24T09:08:48.545Z,7.97
2019-02-24T09:11:18.496Z,8.17
2019-02-24T09:13:48.416Z,7.33
2019-02-24T09:16:18.346Z,7.15
2019-02-24T09:18:48.277Z,7.10
2019-02-24T09:21:18.184Z,8.50
2019-02-24T09:23:47.969Z,7.55
2019-02-24T09:26:17.814Z,7.90
2019-02-24T09:28:47.731Z,8.75
2019-02-24T09:31:17.562Z,7.25
2019-02-24T09:33:47.419Z,7.40
2019-02-24T09:36:17.331Z,7.28
2019-02-24T09:38:47.277Z,7.75
2019-02-24T09:41:18.452Z,7.90
2019-02-24T09:43:48.339Z,8.43
2019-02-24T09:46:18.179Z,7.85
2019-02-24T09:48:57.320Z,7.37
2019-02-24T09:51:27.262Z,6.83
2019-02-24T09:53:57.190Z,7.90
2019-02-24T09:56:27.102Z,7.75
2019-02-24T09:58:56.958Z,7.20
2019-02-24T10:01:26.956Z,7.78
2019-02-24T10:03:56.877Z,6.67
2019-02-24T10:06:27.763Z,6.70
2019-02-24T10:08:57.833Z,6.67
2019-02-24T10:11:27.748Z,7.10
2019-02-24T10:13:57.546Z,7.40
2019-02-24T10:16:27.343Z,6.85
2019-02-24T10:18:58.046Z,6.62
2019-02-24T10:21:27.898Z,7.08
2019-02-24T10:23:57.739Z,7.45
2019-02-24T10:26:27.646Z,7.17
2019-02-24T10:28:57.618Z,7.00
2019-02-24T10:31:28.896Z,6.50
2019-02-24T10:33:58.734Z,6.87
2019-02-24T10:36:29.282Z,6.65
2019-02-24T10:39:00.582Z,7.10
2019-02-24T10:41:31.764Z,6.70
2019-02-24T10:44:01.618Z,6.53
2019-02-24T10:46:31.683Z,7.37
2019-02-24T10:49:03.556Z,6.33
2019-02-24T10:51:33.208Z,6.17
2019-02-24T10:54:04.171Z,7.03
2019-02-24T10:56:34.066Z,7.47
2019-02-24T10:59:04.040Z,7.03
2019-02-24T11:01:33.932Z,6.20
2019-02-24T11:04:03.865Z,6.60
2019-02-24T11:06:33.784Z,6.83
2019-02-24T11:09:04.335Z,6.80
2019-02-24T11:11:35.339Z,6.80
2019-02-24T11:14:05.272Z,7.12
2019-02-24T11:16:35.214Z,6.70
2019-02-24T11:19:05.092Z,6.85
2019-02-24T11:21:35.031Z,6.60
2019-02-24T11:24:04.908Z,6.83
2019-02-24T11:26:34.824Z,6.22
2019-02-24T11:29:04.748Z,7.05
2019-02-24T11:31:38.289Z,6.72
2019-02-24T11:34:06.109Z,6.87
2019-02-24T11:36:35.923Z,7.17
2019-02-24T11:39:05.975Z,6.30
2019-02-24T11:41:36.633Z,6.70
2019-02-24T11:44:06.583Z,6.40
2019-02-24T11:46:36.400Z,6.00
2019-02-24T11:49:06.534Z,6.40
2019-02-24T11:51:36.469Z,5.83
2019-02-24T11:54:06.311Z,6.28
2019-02-24T11:56:39.021Z,6.65
2019-02-24T11:59:09.143Z,6.35
2019-02-24T12:01:47.086Z,5.97
2019-02-24T12:04:11.083Z,6.10
2019-02-24T12:06:40.977Z,6.50
2019-02-24T12:09:11.043Z,6.50
2019-02-24T12:11:41.033Z,6.45
2019-02-24T12:14:11.980Z,6.45
2019-02-24T12:16:41.898Z,7.03
2019-02-24T12:19:11.690Z,5.62
2019-02-24T12:21:41.582Z,5.62
2019-02-24T12:24:11.477Z,6.40
2019-02-24T12:26:41.409Z,5.80
2019-02-24T12:29:14.774Z,6.17
2019-02-24T12:31:44.734Z,5.95
2019-02-24T12:34:14.638Z,6.60
2019-02-24T12:36:44.814Z,6.37
2019-02-24T12:39:14.855Z,6.37
2019-02-24T12:41:44.772Z,6.28
2019-02-24T12:44:14.859Z,6.00
2019-02-24T12:46:44.809Z,5.87
2019-02-24T12:49:15.169Z,5.70
2019-02-24T12:51:45.236Z,5.80
2019-02-24T12:54:15.160Z,6.35
2019-02-24T12:56:45.017Z,5.85
2019-02-24T12:59:16.505Z,6.60
2019-02-24T13:01:46.343Z,5.72
2019-02-24T13:04:16.434Z,6.10
2019-02-24T13:06:46.364Z,6.40
2019-02-24T13:09:16.213Z,6.15
2019-02-24T13:11:46.051Z,5.90
2019-02-24T13:14:16.108Z,6.25
2019-02-24T13:16:46.161Z,5.80
2019-02-24T13:19:16.013Z,5.62
2019-02-24T13:21:46.484Z,6.87
2019-02-24T13:24:16.325Z,6.40
2019-02-24T13:26:46.171Z,6.20
2019-02-24T13:29:16.030Z,5.73
2019-02-24T13:31:45.847Z,6.95
2019-02-24T13:34:15.777Z,6.23
2019-02-24T13:36:45.601Z,5.40
2019-02-24T13:39:15.853Z,6.27
2019-02-24T13:41:45.766Z,6.78
2019-02-24T13:44:15.660Z,6.17
2019-02-24T13:46:45.631Z,5.83
2019-02-24T13:49:16.866Z,6.40
2019-02-24T13:51:46.815Z,6.03
2019-02-24T13:54:16.796Z,6.10
2019-02-24T13:56:46.724Z,5.80
2019-02-24T13:59:16.642Z,6.62
2019-02-24T14:01:46.813Z,6.20
2019-02-24T14:04:18.003Z,6.97
2019-02-24T14:06:47.957Z,7.70
2019-02-24T14:09:20.851Z,6.45
2019-02-24T14:11:50.965Z,6.10
2019-02-24T14:14:22.317Z,6.20
2019-02-24T14:16:54.129Z,6.03
2019-02-24T14:19:24.128Z,6.62
2019-02-24T14:21:54.381Z,7.85
2019-02-24T14:24:24.400Z,7.33
2019-02-24T14:26:54.714Z,7.50
2019-02-24T14:29:24.863Z,7.03
2019-02-24T14:31:54.814Z,7.22
2019-02-24T14:34:24.823Z,6.03
2019-02-24T14:36:55.037Z,6.43
2019-02-24T14:39:25.446Z,6.13
2019-02-24T14:41:55.603Z,7.13
2019-02-24T14:44:26.010Z,6.35
2019-02-24T14:46:57.248Z,5.80
2019-02-24T14:49:27.428Z,6.05
2019-02-24T14:51:57.585Z,7.15
2019-02-24T14:54:27.708Z,6.42
2019-02-24T14:56:57.669Z,5.95
2019-02-24T14:59:27.650Z,5.95
2019-02-24T15:01:57.640Z,6.00
2019-02-24T15:04:27.804Z,5.80
2019-02-24T15:06:57.929Z,6.22
2019-02-24T15:09:28.083Z,5.62
2019-02-24T15:11:58.238Z,7.50
2019-02-24T15:14:28.357Z,5.97
2019-02-24T15:16:58.757Z,5.47
2019-02-24T15:19:29.017Z,5.67
2019-02-24T15:21:59.232Z,5.78
2019-02-24T15:24:29.382Z,6.03
2019-02-24T15:26:59.550Z,5.80
2019-02-24T15:29:29.592Z,6.33
2019-02-24T15:31:59.816Z,5.80
2019-02-24T15:34:32.548Z,6.03
2019-02-24T15:37:02.660Z,5.67
2019-02-24T15:39:32.606Z,5.83
2019-02-24T15:42:02.610Z,5.92
2019-02-24T15:44:32.821Z,6.80
2019-02-24T15:47:02.889Z,6.28
2019-02-24T15:49:32.851Z,6.40
2019-02-24T15:52:09.722Z,7.47
2019-02-24T15:54:35.360Z,7.22
2019-02-24T15:57:05.289Z,6.47
2019-02-24T15:59:35.685Z,6.62
2019-02-24T16:02:05.583Z,6.50
2019-02-24T16:04:35.519Z,5.65
2019-02-24T16:07:05.583Z,5.67
2019-02-24T16:09:35.674Z,5.62
2019-02-24T16:12:08.894Z,6.45
2019-02-24T16:14:38.847Z,6.97
2019-02-24T16:17:08.691Z,6.25
2019-02-24T16:19:38.560Z,7.67
2019-02-24T16:22:08.636Z,8.13
2019-02-24T16:24:38.589Z,8.03
2019-02-24T16:27:08.539Z,6.92
2019-02-24T16:29:38.433Z,7.25
2019-02-24T16:32:08.397Z,6.78
2019-02-24T16:34:38.245Z,6.23
2019-02-24T16:37:08.334Z,7.25
2019-02-24T16:39:38.161Z,6.50
2019-02-24T16:42:08.132Z,7.33
2019-02-24T16:44:43.612Z,7.55
2019-02-24T16:47:13.703Z,7.37
2019-02-24T16:49:43.703Z,7.60
2019-02-24T16:52:13.634Z,9.60
2019-02-24T16:54:52.343Z,8.25
2019-02-24T16:57:15.455Z,7.30
2019-02-24T16:59:45.494Z,6.83
2019-02-24T17:02:22.593Z,7.33
2019-02-24T17:04:47.097Z,6.00
2019-02-24T17:07:17.070Z,6.65
2019-02-24T17:09:47.022Z,7.60
2019-02-24T17:12:16.975Z,7.37
2019-02-24T17:14:46.966Z,8.68
2019-02-24T17:17:17.047Z,8.17
2019-02-24T17:19:47.060Z,8.57
2019-02-24T17:22:17.034Z,6.70
2019-02-24T17:24:47.050Z,6.77
2019-02-24T17:27:17.217Z,8.00
2019-02-24T17:29:47.362Z,7.97
2019-02-24T17:32:17.396Z,7.60
2019-02-24T17:34:47.430Z,7.85
2019-02-24T17:37:20.091Z,9.43
2019-02-24T17:39:48.993Z,8.90
2019-02-24T17:42:18.962Z,8.68
2019-02-24T17:44:48.979Z,8.08
2019-02-24T17:47:18.893Z,7.20
2019-02-24T17:49:48.914Z,7.65
2019-02-24T17:52:18.947Z,7.72
2019-02-24T17:54:48.882Z,8.28
2019-02-24T17:57:18.959Z,7.90
2019-02-24T17:59:48.919Z,8.33
2019-02-24T18:02:20.025Z,8.50
2019-02-24T18:04:50.064Z,7.87
2019-02-24T18:07:20.338Z,7.90
2019-02-24T18:09:50.418Z,8.57
2019-02-24T18:12:20.458Z,10.30
2019-02-24T18:14:50.458Z,10.45
2019-02-24T18:17:20.546Z,8.43
2019-02-24T18:19:51.539Z,8.88
2019-02-24T18:22:21.399Z,7.92
2019-02-24T18:24:52.546Z,9.33
2019-02-24T18:27:23.842Z,10.93
2019-02-24T18:29:53.886Z,9.43
2019-02-24T18:32:24.788Z,10.20
2019-02-24T18:34:54.786Z,9.83
2019-02-24T18:37:24.714Z,10.23
2019-02-24T18:39:55.127Z,7.83
2019-02-24T18:42:25.152Z,9.93
2019-02-24T18:44:56.715Z,11.25
2019-02-24T18:47:26.724Z,9.05
2019-02-24T18:49:56.727Z,10.30
2019-02-24T18:52:26.714Z,9.30
2019-02-24T18:54:57.205Z,10.95
2019-02-24T18:57:27.241Z,10.00
2019-02-24T18:59:57.265Z,10.88
2019-02-24T19:02:27.274Z,12.10
2019-02-24T19:04:57.313Z,12.23
2019-02-24T19:07:33.068Z,11.97
2019-02-24T19:10:04.668Z,11.73
2019-02-24T19:12:34.733Z,13.38
2019-02-24T19:15:04.832Z,12.73
2019-02-24T19:17:34.785Z,14.55
2019-02-24T19:20:06.390Z,12.23
2019-02-24T19:22:36.426Z,13.43
2019-02-24T19:25:09.028Z,13.43
2019-02-24T19:27:40.064Z,13.50
2019-02-24T19:30:11.791Z,14.05
2019-02-24T19:32:41.669Z,14.80
2019-02-24T19:35:12.273Z,13.15
2019-02-24T19:37:45.572Z,12.40
2019-02-24T19:40:16.597Z,13.68
2019-02-24T19:42:46.637Z,13.55
2019-02-24T19:45:17.419Z,12.98
2019-02-24T19:47:48.321Z,10.78
2019-02-24T19:50:18.452Z,11.33
2019-02-24T19:52:48.332Z,9.90
2019-02-24T19:55:20.640Z,10.05
2019-02-24T19:57:50.538Z,8.40
2019-02-24T20:00:21.444Z,8.63
2019-02-24T20:02:54.375Z,9.33
2019-02-24T20:05:24.646Z,10.57
2019-02-24T20:07:54.611Z,9.20
2019-02-24T20:10:24.939Z,9.73
2019-02-24T20:12:54.914Z,11.15
2019-02-24T20:15:24.996Z,9.83
2019-02-24T20:17:55.001Z,10.63
2019-02-24T20:20:25.009Z,11.33
2019-02-24T20:22:54.943Z,9.33
2019-02-24T20:25:24.982Z,7.90
2019-02-24T20:27:54.972Z,9.38
2019-02-24T20:30:26.528Z,9.90
2019-02-24T20:32:56.928Z,8.60
2019-02-24T20:35:26.992Z,8.55
2019-02-24T20:37:56.989Z,9.83
2019-02-24T20:40:29.814Z,9.05
2019-02-24T20:43:02.740Z,8.75
2019-02-24T20:45:35.854Z,10.13
2019-02-24T20:48:05.974Z,10.50
2019-02-24T20:50:36.184Z,8.70
2019-02-24T20:53:06.220Z,9.20
2019-02-24T20:55:36.236Z,10.25
2019-02-24T20:58:06.344Z,11.17
2019-02-24T21:00:38.714Z,10.48
2019-02-24T21:03:08.718Z,12.55
2019-02-24T21:05:38.672Z,14.00
2019-02-24T21:08:08.683Z,12.00
2019-02-24T21:10:38.679Z,12.43
2019-02-24T21:13:08.675Z,11.78
2019-02-24T21:15:38.558Z,12.45
2019-02-24T21:18:09.556Z,12.93
2019-02-24T21:20:39.629Z,11.78
2019-02-24T21:23:09.693Z,12.68
2019-02-24T21:25:39.751Z,12.05
2019-02-24T21:28:09.821Z,10.77
2019-02-24T21:30:40.011Z,13.62
2019-02-24T21:33:10.034Z,12.28
2019-02-24T21:35:40.169Z,11.68
2019-02-24T21:38:10.142Z,15.48
2019-02-24T21:40:40.086Z,14.50
2019-02-24T21:43:11.094Z,13.15
2019-02-24T21:45:41.654Z,13.48
2019-02-24T21:48:11.912Z,13.93
2019-02-24T21:50:42.190Z,13.85
2019-02-24T21:53:12.134Z,11.40
2019-02-24T21:55:42.145Z,12.00
2019-02-24T21:58:12.143Z,13.75
2019-02-24T22:00:42.163Z,13.30
2019-02-24T22:03:12.089Z,11.78
2019-02-24T22:05:42.014Z,12.50
2019-02-24T22:08:11.992Z,11.18
2019-02-24T22:10:41.935Z,11.12
2019-02-24T22:13:12.103Z,12.25
2019-02-24T22:15:42.018Z,12.35
2019-02-24T22:18:12.114Z,11.95
2019-02-24T22:20:44.070Z,11.08
2019-02-24T22:23:14.198Z,10.10
2019-02-24T22:25:44.127Z,10.73
2019-02-24T22:28:15.735Z,11.63
2019-02-24T22:30:46.080Z,12.17
2019-02-24T22:33:15.936Z,11.85
2019-02-24T22:35:45.870Z,13.98
2019-02-24T22:38:15.861Z,13.78
2019-02-24T22:40:54.200Z,14.18
2019-02-24T22:43:17.590Z,13.28
2019-02-24T22:45:47.509Z,11.93
2019-02-24T22:48:17.566Z,13.00
2019-02-24T22:50:47.731Z,12.68
2019-02-24T22:53:17.602Z,11.38
2019-02-24T22:55:47.596Z,11.60
2019-02-24T22:58:17.557Z,10.68
2019-02-24T23:00:57.519Z,10.90
2019-02-24T23:03:31.450Z,10.32
2019-02-24T23:06:01.324Z,9.65
2019-02-24T23:08:31.276Z,11.03
2019-02-24T23:11:01.233Z,10.60
2019-02-24T23:13:31.058Z,10.63
2019-02-24T23:16:00.923Z,8.73
2019-02-24T23:18:30.971Z,10.93
2019-02-24T23:21:00.802Z,10.00
2019-02-24T23:23:30.866Z,8.93
2019-02-24T23:26:00.765Z,9.63
2019-02-24T23:28:30.641Z,12.10
2019-02-24T23:31:00.513Z,10.00
2019-02-24T23:33:30.554Z,9.38
2019-02-24T23:36:00.369Z,10.05
2019-02-24T23:38:33.113Z,10.37
2019-02-24T23:41:03.020Z,10.93
2019-02-24T23:43:33.018Z,9.28
2019-02-24T23:46:02.958Z,10.75
2019-02-24T23:48:32.897Z,12.43
2019-02-24T23:51:02.706Z,9.48
2019-02-24T23:53:32.534Z,9.65
2019-02-24T23:56:02.407Z,10.78
2019-02-24T23:58:32.497Z,12.40
